createdAt,value
2022-11-13T00:01:22.872Z,16.90
2022-11-13T00:03:50.010Z,19.83
2022-11-13T00:06:18.594Z,18.93
2022-11-13T00:08:46.224Z,13.63
2022-11-13T00:11:16.069Z,17.87
2022-11-13T00:13:45.886Z,14.02
2022-11-13T00:16:15.658Z,20.10
2022-11-13T00:18:42.953Z,21.05
2022-11-13T00:21:17.122Z,19.27
2022-11-13T00:23:44.192Z,14.17
2022-11-13T00:26:19.943Z,19.07
2022-11-13T00:28:46.906Z,17.37
2022-11-13T00:31:15.536Z,18.50
2022-11-13T00:36:29.718Z,22.90
2022-11-13T00:38:56.777Z,19.97
2022-11-13T00:41:24.691Z,19.53
2022-11-13T00:43:51.970Z,19.90
2022-11-13T00:46:18.854Z,17.27
2022-11-13T00:48:45.594Z,18.77
2022-11-13T00:51:12.322Z,16.03
2022-11-13T00:53:39.195Z,14.63
2022-11-13T00:56:06.238Z,18.60
2022-11-13T00:58:32.984Z,16.37
2022-11-13T01:01:09.692Z,15.53
2022-11-13T01:03:36.708Z,21.03
2022-11-13T01:06:22.148Z,20.40
2022-11-13T01:08:49.680Z,19.83
2022-11-13T01:11:21.710Z,17.67
2022-11-13T01:13:51.015Z,21.83
2022-11-13T01:16:20.467Z,18.65
2022-11-13T01:18:47.504Z,16.33
2022-11-13T01:21:23.088Z,19.50
2022-11-13T01:23:49.834Z,20.80
2022-11-13T01:26:23.783Z,19.93
2022-11-13T01:28:50.809Z,23.67
2022-11-13T01:31:21.693Z,18.13
2022-11-13T01:33:49.687Z,19.80
2022-11-13T01:36:22.152Z,14.80
2022-11-13T01:38:50.040Z,20.30
2022-11-13T01:41:26.139Z,18.33
2022-11-13T01:43:54.224Z,17.23
2022-11-13T01:46:32.850Z,19.40
2022-11-13T01:49:05.470Z,20.47
2022-11-13T01:51:53.627Z,19.97
2022-11-13T01:54:25.663Z,16.20
2022-11-13T01:56:53.982Z,14.40
2022-11-13T01:59:24.528Z,15.90
2022-11-13T02:01:51.875Z,11.40
2022-11-13T02:04:19.894Z,15.07
2022-11-13T02:06:52.100Z,13.60
2022-11-13T02:09:23.032Z,19.33
2022-11-13T02:11:49.775Z,11.90
2022-11-13T02:14:18.492Z,16.47
2022-11-13T02:16:49.004Z,13.53
2022-11-13T02:19:48.896Z,18.63
2022-11-13T02:22:49.676Z,15.23
2022-11-13T02:25:17.441Z,16.50
2022-11-13T02:27:49.158Z,14.40
2022-11-13T02:30:26.604Z,17.40
2022-11-13T02:32:55.498Z,15.50
2022-11-13T02:35:27.953Z,14.20
2022-11-13T02:37:59.799Z,14.03
2022-11-13T02:40:27.234Z,14.23
2022-11-13T02:42:54.133Z,13.60
2022-11-13T02:45:20.880Z,15.80
2022-11-13T02:47:47.980Z,16.13
2022-11-13T02:50:14.968Z,18.20
2022-11-13T02:52:41.824Z,16.30
2022-11-13T02:55:09.074Z,16.30
2022-11-13T02:57:36.379Z,17.97
2022-11-13T03:00:07.963Z,19.40
2022-11-13T03:02:39.545Z,16.60
2022-11-13T03:05:14.391Z,15.40
2022-11-13T03:07:42.234Z,20.83
2022-11-13T03:10:10.913Z,13.73
2022-11-13T03:12:38.682Z,15.00
2022-11-13T03:15:06.301Z,13.90
2022-11-13T03:17:33.376Z,12.43
2022-11-13T03:20:00.571Z,15.20
2022-11-13T03:22:28.121Z,15.13
2022-11-13T03:24:54.818Z,15.20
2022-11-13T03:27:21.872Z,13.83
2022-11-13T03:29:48.920Z,15.03
2022-11-13T03:32:15.697Z,13.97
2022-11-13T03:34:42.660Z,15.43
2022-11-13T03:37:09.483Z,13.70
2022-11-13T03:39:36.180Z,14.40
2022-11-13T03:42:02.878Z,17.00
2022-11-13T03:44:29.614Z,14.90
2022-11-13T03:46:56.302Z,14.60
2022-11-13T03:49:22.991Z,12.53
2022-11-13T03:51:49.808Z,16.97
2022-11-13T03:54:16.583Z,14.40
2022-11-13T03:56:43.267Z,14.70
2022-11-13T03:59:10.060Z,14.87
2022-11-13T04:01:36.807Z,11.90
2022-11-13T04:04:03.604Z,11.13
2022-11-13T04:06:30.468Z,16.40
2022-11-13T04:08:58.679Z,13.60
2022-11-13T04:11:25.443Z,13.27
2022-11-13T04:13:52.225Z,13.17
2022-11-13T04:16:18.926Z,13.70
2022-11-13T04:18:45.731Z,13.27
2022-11-13T04:21:12.463Z,15.23
2022-11-13T04:23:39.208Z,15.07
2022-11-13T04:26:06.019Z,13.57
2022-11-13T04:28:32.929Z,13.27
2022-11-13T04:30:59.679Z,12.30
2022-11-13T04:33:26.578Z,13.30
2022-11-13T04:35:53.320Z,13.70
2022-11-13T04:38:20.031Z,12.67
2022-11-13T04:40:51.611Z,13.87
2022-11-13T04:43:18.311Z,15.07
2022-11-13T04:45:45.010Z,13.00
2022-11-13T04:48:11.841Z,10.63
2022-11-13T04:50:38.535Z,11.73
2022-11-13T04:53:05.219Z,12.73
2022-11-13T04:55:31.957Z,11.43
2022-11-13T04:57:59.023Z,12.90
2022-11-13T05:00:25.851Z,11.30
2022-11-13T05:02:52.559Z,14.87
2022-11-13T05:05:19.308Z,12.73
2022-11-13T05:07:46.109Z,12.90
2022-11-13T05:10:13.034Z,12.03
2022-11-13T05:12:39.763Z,12.30
2022-11-13T05:15:07.241Z,10.27
2022-11-13T05:17:33.918Z,9.23
2022-11-13T05:20:00.684Z,10.03
2022-11-13T05:22:27.499Z,10.77
2022-11-13T05:24:54.201Z,13.53
2022-11-13T05:27:20.963Z,16.37
2022-11-13T05:29:47.850Z,13.63
2022-11-13T05:32:14.673Z,11.13
2022-11-13T05:34:41.411Z,10.50
2022-11-13T05:37:08.197Z,10.50
2022-11-13T05:39:34.999Z,13.33
2022-11-13T05:42:01.691Z,14.30
2022-11-13T05:44:28.760Z,14.83
2022-11-13T05:46:55.472Z,13.80
2022-11-13T05:49:22.162Z,13.83
2022-11-13T05:51:49.052Z,11.70
2022-11-13T05:54:15.832Z,13.97
2022-11-13T05:56:42.547Z,14.97
2022-11-13T05:59:09.571Z,11.20
2022-11-13T06:01:39.216Z,13.93
2022-11-13T06:04:07.832Z,11.88
2022-11-13T06:06:35.373Z,13.57
2022-11-13T06:09:05.230Z,13.97
2022-11-13T06:11:32.281Z,12.88
2022-11-13T06:14:00.171Z,11.87
2022-11-13T06:16:34.628Z,11.30
2022-11-13T06:19:03.797Z,13.50
2022-11-13T06:21:32.874Z,9.67
2022-11-13T06:24:01.070Z,14.17
2022-11-13T06:26:32.791Z,12.57
2022-11-13T06:29:02.707Z,15.03
2022-11-13T06:31:32.245Z,12.52
2022-11-13T06:33:59.806Z,10.85
2022-11-13T06:36:44.868Z,11.73
2022-11-13T06:39:12.570Z,10.57
2022-11-13T06:41:39.879Z,11.27
2022-11-13T06:44:06.769Z,10.17
2022-11-13T06:46:33.699Z,14.90
2022-11-13T06:49:00.411Z,13.00
2022-11-13T06:51:30.324Z,11.67
2022-11-13T06:53:58.213Z,9.63
2022-11-13T06:56:25.508Z,12.00
2022-11-13T06:58:53.932Z,9.80
2022-11-13T07:01:22.796Z,12.03
2022-11-13T07:03:49.628Z,9.77
2022-11-13T07:06:19.506Z,9.17
2022-11-13T07:08:47.179Z,11.23
2022-11-13T07:11:16.658Z,12.73
2022-11-13T07:13:43.903Z,11.05
2022-11-13T07:16:17.086Z,12.10
2022-11-13T07:18:49.829Z,13.83
2022-11-13T07:21:16.721Z,9.53
2022-11-13T07:23:43.810Z,12.00
2022-11-13T07:26:11.342Z,12.93
2022-11-13T07:28:38.707Z,10.63
2022-11-13T07:31:06.406Z,13.10
2022-11-13T07:33:33.744Z,11.00
2022-11-13T07:36:00.809Z,10.77
2022-11-13T07:38:27.753Z,11.73
2022-11-13T07:40:54.970Z,11.33
2022-11-13T07:43:21.780Z,12.43
2022-11-13T07:45:54.556Z,13.60
2022-11-13T07:48:25.215Z,13.23
2022-11-13T07:50:52.032Z,10.20
2022-11-13T07:53:20.388Z,10.20
2022-11-13T07:55:48.043Z,11.30
2022-11-13T07:58:14.852Z,14.60
2022-11-13T08:00:41.613Z,13.53
2022-11-13T08:03:12.512Z,12.60
2022-11-13T08:05:39.942Z,11.13
2022-11-13T08:08:07.849Z,10.73
2022-11-13T08:10:36.176Z,11.90
2022-11-13T08:13:05.367Z,10.47
2022-11-13T08:15:32.651Z,14.80
2022-11-13T08:18:02.058Z,10.87
2022-11-13T08:20:30.607Z,11.68
2022-11-13T08:23:02.210Z,11.67
2022-11-13T08:25:30.352Z,12.47
2022-11-13T08:27:57.471Z,12.73
2022-11-13T08:30:26.728Z,11.00
2022-11-13T08:32:53.635Z,14.63
2022-11-13T08:35:23.988Z,11.27
2022-11-13T08:37:53.713Z,11.43
2022-11-13T08:40:20.818Z,11.07
2022-11-13T08:42:47.518Z,13.32
2022-11-13T08:45:14.355Z,13.85
2022-11-13T08:47:41.061Z,14.43
2022-11-13T08:50:10.929Z,11.95
2022-11-13T08:52:37.859Z,11.40
2022-11-13T08:55:05.017Z,11.55
2022-11-13T08:57:31.708Z,12.60
2022-11-13T08:59:58.570Z,13.38
2022-11-13T09:02:25.369Z,13.38
2022-11-13T09:04:52.213Z,10.73
2022-11-13T09:07:24.620Z,11.02
2022-11-13T09:09:54.151Z,12.07
2022-11-13T09:12:21.696Z,11.20
2022-11-13T09:14:48.722Z,12.95
2022-11-13T09:17:16.043Z,12.25
2022-11-13T09:19:43.995Z,13.18
2022-11-13T09:22:11.650Z,9.57
2022-11-13T09:24:38.358Z,13.30
2022-11-13T09:27:05.125Z,13.93
2022-11-13T09:29:31.945Z,11.63
2022-11-13T09:31:58.665Z,13.02
2022-11-13T09:34:26.592Z,10.60
2022-11-13T09:36:54.173Z,9.73
2022-11-13T09:39:20.895Z,11.82
2022-11-13T09:41:56.552Z,14.65
2022-11-13T09:44:29.377Z,10.93
2022-11-13T09:47:23.381Z,12.45
2022-11-13T09:49:58.456Z,10.50
2022-11-13T09:52:32.980Z,10.70
2022-11-13T09:54:59.912Z,12.80
2022-11-13T09:57:42.194Z,10.25
2022-11-13T10:00:20.600Z,12.90
2022-11-13T10:02:50.456Z,11.48
2022-11-13T10:07:55.580Z,10.88
2022-11-13T10:10:37.042Z,14.05
2022-11-13T10:13:05.987Z,11.57
2022-11-13T10:15:32.740Z,9.23
2022-11-13T10:18:11.694Z,11.77
2022-11-13T10:20:50.301Z,11.48
2022-11-13T10:23:21.538Z,10.90
2022-11-13T10:25:48.803Z,12.13
2022-11-13T10:31:05.827Z,11.60
2022-11-13T10:33:32.533Z,9.57
2022-11-13T10:36:27.820Z,11.68
2022-11-13T10:39:02.352Z,11.77
2022-11-13T10:41:29.341Z,11.85
2022-11-13T10:43:59.557Z,11.57
2022-11-13T10:46:30.252Z,14.43
2022-11-13T10:48:58.278Z,14.30
2022-11-13T10:51:27.133Z,12.63
2022-11-13T10:53:55.298Z,12.75
2022-11-13T10:56:36.423Z,10.65
2022-11-13T10:59:17.949Z,14.85
2022-11-13T11:01:47.205Z,12.95
2022-11-13T11:04:30.239Z,10.77
2022-11-13T11:07:20.140Z,10.32
2022-11-13T11:09:49.320Z,11.63
2022-11-13T11:12:30.229Z,10.57
2022-11-13T11:14:57.486Z,9.10
2022-11-13T11:17:39.749Z,10.55
2022-11-13T11:20:34.342Z,11.30
2022-11-13T11:23:39.836Z,10.63
2022-11-13T11:26:45.816Z,12.93
2022-11-13T11:29:38.026Z,8.82
2022-11-13T11:32:16.924Z,9.27
2022-11-13T11:34:58.971Z,9.68
2022-11-13T11:37:34.263Z,9.68
2022-11-13T11:40:22.397Z,9.05
2022-11-13T11:43:21.215Z,11.05
2022-11-13T11:45:48.416Z,10.15
2022-11-13T11:48:41.688Z,9.50
2022-11-13T11:51:26.045Z,11.25
2022-11-13T11:54:04.942Z,9.70
2022-11-13T11:56:43.612Z,11.02
2022-11-13T11:59:13.442Z,9.98
2022-11-13T12:02:07.738Z,12.73
2022-11-13T12:04:56.575Z,11.13
2022-11-13T12:07:39.408Z,10.93
2022-11-13T12:10:22.519Z,9.80
2022-11-13T12:13:23.892Z,9.30
2022-11-13T12:16:05.868Z,14.00
2022-11-13T12:18:50.796Z,11.15
2022-11-13T12:21:27.068Z,10.98
2022-11-13T12:24:24.177Z,10.73
2022-11-13T12:26:59.941Z,10.18
2022-11-13T12:29:49.876Z,9.88
2022-11-13T12:32:28.821Z,10.60
2022-11-13T12:35:15.202Z,9.70
2022-11-13T12:37:57.728Z,9.32
2022-11-13T12:40:44.217Z,9.98
2022-11-13T12:43:38.841Z,10.18
2022-11-13T12:46:10.790Z,10.30
2022-11-13T12:48:39.485Z,9.48
2022-11-13T12:51:12.468Z,10.25
2022-11-13T12:53:47.133Z,8.68
2022-11-13T12:56:37.566Z,9.93
2022-11-13T12:59:37.131Z,8.75
2022-11-13T13:02:07.191Z,10.63
2022-11-13T13:04:39.607Z,13.20
2022-11-13T13:07:09.392Z,8.90
2022-11-13T13:09:55.591Z,9.32
2022-11-13T13:12:56.509Z,10.80
2022-11-13T13:15:42.309Z,12.00
2022-11-13T13:18:18.001Z,9.90
2022-11-13T13:20:57.207Z,7.97
2022-11-13T13:23:32.585Z,7.82
2022-11-13T13:26:17.683Z,7.63
2022-11-13T13:28:52.518Z,7.97
2022-11-13T13:31:38.443Z,12.02
2022-11-13T13:34:08.199Z,9.80
2022-11-13T13:36:45.869Z,10.52
2022-11-13T13:39:28.676Z,7.60
2022-11-13T13:42:18.883Z,7.78
2022-11-13T13:45:04.625Z,8.50
2022-11-13T13:47:41.258Z,8.15
2022-11-13T13:50:14.242Z,8.50
2022-11-13T13:52:43.321Z,9.23
2022-11-13T13:55:27.984Z,8.30
2022-11-13T13:57:55.380Z,10.65
2022-11-13T14:00:22.587Z,8.25
2022-11-13T14:02:53.678Z,8.52
2022-11-13T14:05:28.625Z,8.23
2022-11-13T14:07:57.751Z,8.05
2022-11-13T14:10:28.278Z,7.38
2022-11-13T14:12:56.459Z,8.65
2022-11-13T14:15:34.938Z,8.15
2022-11-13T14:20:49.860Z,7.28
2022-11-13T14:23:32.832Z,11.90
2022-11-13T14:26:00.303Z,8.15
2022-11-13T14:28:30.436Z,8.07
2022-11-13T14:31:06.615Z,9.93
2022-11-13T14:33:37.437Z,8.43
2022-11-13T14:36:05.419Z,9.05
2022-11-13T14:38:35.869Z,9.70
2022-11-13T14:41:04.650Z,8.15
2022-11-13T14:43:32.868Z,8.27
2022-11-13T14:46:03.011Z,8.75
2022-11-13T14:48:32.290Z,11.65
2022-11-13T14:51:19.349Z,11.60
2022-11-13T14:53:58.648Z,9.35
2022-11-13T14:56:33.151Z,12.15
2022-11-13T14:59:19.857Z,12.35
2022-11-13T15:01:59.773Z,11.40
2022-11-13T15:04:26.599Z,9.68
2022-11-13T15:06:56.395Z,9.98
2022-11-13T15:09:25.127Z,9.60
2022-11-13T15:11:52.180Z,9.00
2022-11-13T15:14:20.915Z,7.97
2022-11-13T15:16:50.137Z,8.05
2022-11-13T15:19:26.185Z,7.78
2022-11-13T15:22:25.257Z,8.80
2022-11-13T15:24:41.788Z,10.55
2022-11-13T15:27:18.006Z,8.00
2022-11-13T15:29:45.076Z,8.82
2022-11-13T15:32:13.211Z,9.00
2022-11-13T15:34:40.252Z,12.68
2022-11-13T15:37:15.355Z,8.90
2022-11-13T15:39:42.664Z,7.63
2022-11-13T15:42:16.251Z,10.10
2022-11-13T15:44:43.122Z,8.98
2022-11-13T15:47:32.165Z,13.95
2022-11-13T15:50:15.611Z,15.37
2022-11-13T15:52:47.809Z,11.90
2022-11-13T15:55:27.803Z,10.30
2022-11-13T16:00:27.534Z,9.70
2022-11-13T16:02:56.409Z,12.02
2022-11-13T16:05:25.752Z,11.10
2022-11-13T16:07:54.445Z,9.13
2022-11-13T16:10:22.593Z,11.00
2022-11-13T16:12:49.408Z,12.50
2022-11-13T16:15:17.754Z,9.35
2022-11-13T16:17:51.200Z,8.23
2022-11-13T16:20:18.511Z,9.10
2022-11-13T16:22:45.648Z,10.98
2022-11-13T16:25:15.776Z,12.50
2022-11-13T16:30:21.226Z,12.73
2022-11-13T16:32:48.400Z,13.38
2022-11-13T16:35:19.709Z,12.88
2022-11-13T16:37:46.946Z,14.20
2022-11-13T16:40:23.557Z,13.77
2022-11-13T16:42:50.649Z,16.10
2022-11-13T16:45:17.661Z,14.73
2022-11-13T16:47:45.443Z,18.65
2022-11-13T16:50:29.754Z,16.08
2022-11-13T16:52:57.820Z,15.57
2022-11-13T16:55:24.584Z,15.75
2022-11-13T16:57:51.513Z,16.25
2022-11-13T17:00:20.502Z,16.20
2022-11-13T17:02:50.551Z,17.85
2022-11-13T17:07:44.346Z,17.50
2022-11-13T17:10:30.815Z,18.55
2022-11-13T17:12:59.266Z,16.48
2022-11-13T17:15:26.184Z,16.27
2022-11-13T17:17:57.115Z,16.67
2022-11-13T17:20:24.812Z,14.98
2022-11-13T17:22:51.777Z,19.92
2022-11-13T17:25:20.812Z,13.93
2022-11-13T17:27:47.593Z,17.60
2022-11-13T17:30:14.834Z,14.10
2022-11-13T17:32:41.582Z,13.93
2022-11-13T17:35:11.555Z,21.80
2022-11-13T17:37:38.661Z,15.00
2022-11-13T17:40:05.904Z,15.03
2022-11-13T17:42:32.619Z,18.20
2022-11-13T17:44:59.597Z,17.80
2022-11-13T17:47:26.389Z,18.60
2022-11-13T17:49:53.122Z,21.13
2022-11-13T17:52:19.956Z,23.63
2022-11-13T17:54:46.707Z,17.23
2022-11-13T17:57:13.476Z,17.70
2022-11-13T17:59:41.520Z,16.60
2022-11-13T18:02:11.800Z,16.00
2022-11-13T18:04:38.563Z,16.73
2022-11-13T18:07:05.552Z,16.83
2022-11-13T18:09:32.328Z,18.33
2022-11-13T18:11:58.999Z,18.33
2022-11-13T18:14:25.830Z,16.75
2022-11-13T18:16:52.509Z,16.55
2022-11-13T18:19:19.419Z,17.87
2022-11-13T18:21:46.235Z,18.70
2022-11-13T18:24:19.242Z,17.30
2022-11-13T18:26:46.311Z,15.70
2022-11-13T18:29:13.031Z,21.27
2022-11-13T18:31:40.088Z,19.57
2022-11-13T18:34:08.086Z,17.98
2022-11-13T18:36:35.952Z,20.38
2022-11-13T18:39:03.471Z,15.98
2022-11-13T18:41:31.124Z,16.35
2022-11-13T18:43:57.951Z,18.00
2022-11-13T18:46:26.526Z,16.65
2022-11-13T18:48:55.504Z,16.92
2022-11-13T18:51:25.774Z,14.75
2022-11-13T18:53:53.154Z,13.85
2022-11-13T18:56:25.233Z,16.58
2022-11-13T18:58:53.758Z,14.60
2022-11-13T19:01:22.567Z,15.85
2022-11-13T19:04:16.038Z,16.27
2022-11-13T19:06:38.917Z,15.73
2022-11-13T19:09:10.234Z,14.75
2022-11-13T19:11:37.009Z,16.70
2022-11-13T19:14:04.315Z,20.23
2022-11-13T19:16:34.847Z,16.00
2022-11-13T19:19:04.996Z,19.38
2022-11-13T19:21:34.739Z,15.38
2022-11-13T19:24:02.827Z,16.80
2022-11-13T19:26:30.068Z,16.15
2022-11-13T19:28:56.970Z,20.58
2022-11-13T19:31:26.203Z,15.45
2022-11-13T19:34:00.242Z,21.42
2022-11-13T19:36:28.804Z,16.17
2022-11-13T19:38:56.991Z,14.57
2022-11-13T19:41:24.547Z,14.60
2022-11-13T19:43:51.459Z,14.38
2022-11-13T19:46:19.475Z,19.90
2022-11-13T19:48:47.655Z,14.27
2022-11-13T19:51:19.965Z,19.45
2022-11-13T19:53:47.147Z,14.40
2022-11-13T19:56:15.972Z,14.38
2022-11-13T19:58:44.566Z,13.07
2022-11-13T20:01:12.919Z,13.18
2022-11-13T20:03:40.101Z,20.75
2022-11-13T20:06:09.353Z,16.63
2022-11-13T20:08:37.555Z,14.65
2022-11-13T20:11:15.080Z,14.85
2022-11-13T20:13:43.168Z,13.07
2022-11-13T20:16:12.416Z,15.10
2022-11-13T20:18:40.104Z,15.15
2022-11-13T20:21:07.468Z,15.27
2022-11-13T20:23:35.516Z,13.80
2022-11-13T20:26:06.899Z,14.00
2022-11-13T20:28:34.075Z,13.88
2022-11-13T20:31:27.994Z,14.35
2022-11-13T20:33:56.359Z,14.98
2022-11-13T20:36:24.339Z,20.60
2022-11-13T20:38:53.353Z,14.77
2022-11-13T20:41:24.192Z,15.60
2022-11-13T20:43:52.640Z,15.25
2022-11-13T20:46:21.326Z,16.58
2022-11-13T20:48:49.012Z,19.50
2022-11-13T20:51:21.871Z,14.13
2022-11-13T20:53:49.534Z,14.02
2022-11-13T20:56:17.485Z,14.38
2022-11-13T20:58:44.446Z,13.35
2022-11-13T21:01:17.567Z,17.95
2022-11-13T21:03:46.006Z,16.38
2022-11-13T21:06:15.214Z,15.80
2022-11-13T21:08:42.007Z,17.42
2022-11-13T21:11:14.854Z,16.10
2022-11-13T21:13:41.762Z,19.73
2022-11-13T21:16:10.085Z,17.95
2022-11-13T21:18:37.170Z,19.27
2022-11-13T21:21:06.238Z,18.35
2022-11-13T21:23:34.676Z,14.85
2022-11-13T21:26:02.685Z,12.77
2022-11-13T21:28:33.708Z,12.50
2022-11-13T21:31:06.281Z,11.68
2022-11-13T21:33:37.728Z,11.07
2022-11-13T21:36:14.423Z,11.00
2022-11-13T21:38:42.665Z,11.65
2022-11-13T21:41:27.225Z,10.55
2022-11-13T21:44:03.248Z,10.52
2022-11-13T21:46:38.811Z,10.30
2022-11-13T21:49:08.816Z,10.07
2022-11-13T21:51:37.195Z,11.05
2022-11-13T21:54:05.106Z,10.90
2022-11-13T21:56:33.683Z,10.40
2022-11-13T21:59:00.586Z,11.40
2022-11-13T22:01:28.011Z,10.70
2022-11-13T22:03:55.325Z,10.45
2022-11-13T22:06:22.149Z,10.10
2022-11-13T22:09:01.312Z,11.40
2022-11-13T22:11:31.848Z,10.97
2022-11-13T22:13:59.276Z,10.85
2022-11-13T22:16:28.056Z,12.52
2022-11-13T22:18:57.473Z,11.10
2022-11-13T22:21:25.917Z,14.43
2022-11-13T22:23:52.714Z,11.10
2022-11-13T22:26:21.982Z,11.23
2022-11-13T22:28:50.804Z,12.10
2022-11-13T22:31:21.208Z,11.53
2022-11-13T22:33:50.556Z,12.30
2022-11-13T22:36:26.050Z,11.80
2022-11-13T22:38:53.458Z,12.00
2022-11-13T22:41:23.862Z,11.52
2022-11-13T22:43:57.704Z,12.03
2022-11-13T22:46:27.149Z,11.50
2022-11-13T22:48:56.029Z,16.60
2022-11-13T22:51:25.982Z,11.18
2022-11-13T22:53:55.707Z,13.60
2022-11-13T22:56:24.268Z,11.65
2022-11-13T22:58:53.278Z,12.80
2022-11-13T23:01:28.257Z,12.10
2022-11-13T23:03:56.397Z,12.30
2022-11-13T23:06:26.346Z,12.15
2022-11-13T23:08:53.659Z,12.30
2022-11-13T23:11:23.626Z,12.30
2022-11-13T23:13:53.947Z,11.07
2022-11-13T23:16:23.170Z,11.33
2022-11-13T23:18:50.832Z,11.48
2022-11-13T23:21:18.465Z,11.80
2022-11-13T23:23:45.413Z,12.07
2022-11-13T23:26:14.109Z,11.47
2022-11-13T23:28:41.217Z,12.13
2022-11-13T23:31:08.680Z,11.60
2022-11-13T23:33:35.791Z,11.63
2022-11-13T23:36:02.713Z,11.20
2022-11-13T23:38:29.871Z,15.37
2022-11-13T23:40:58.525Z,11.50
2022-11-13T23:43:53.878Z,11.40
2022-11-13T23:46:14.206Z,12.00
2022-11-13T23:48:40.884Z,11.90
2022-11-13T23:51:07.694Z,11.52
2022-11-13T23:53:34.867Z,11.23
2022-11-13T23:56:01.759Z,11.10
2022-11-13T23:58:28.698Z,12.00
